Mc Clellan-Palomar Airport
KCRQ : now visible

Airfield :











YOU CAN JOIN US ON...

 
LOGIN :

Register | Disclaimer

   EN    FR    IT 

 









Legend :    VFR   Marginal VFR   IFR   Intensive IFR   Very Intensive IFR
Visi :
Ceiling :
>= 8 km
>= 3000ft
5 to 8 km
1000 to 3000 ft
1500m to 5 km
500 to 1000 ft
800 to 1500m
200 to 500 ft
< 800m
< 200 ft
Symbols :   Thunderstorms  Fog  Heavy snow  Heavy precipitations  Wind > 20 kt






- Airport Elevation : 331 ft


KCRQ - Mc Clellan-Palomar

CURRENT METAR :
  • 201653Z 15004KT 10SM OVC013 19/15 A2990 RMK AO2 SLP123 T01940150

EXPIRED METARs :
  • 201553Z 07004KT 9SM OVC012 19/16 A2991 RMK AO2 SLP124 T01940156
  • 201453Z 00000KT 8SM OVC010 19/16 A2990 RMK AO2 SLP122 T01890156 53006

TAF KCRQ
Valid from the 20 at 13:00 until the 21 at 12:00 UTC


201248Z 2013/2112 VRB03KT P6SM OVC012
FM201800 25008KT P6SM FEW015
FM210100 VRB04KT P6SM SCT012
FM210400 VRB03KT P6SM OVC007
KZLA FIR / North America



MET'MAP, your aeronautical weather chart ! - Copyright ORBIFLY December 2007 - Disclaimer

ORBIFLY MET'MAP TEAM :

Programming & Development : Alexandra Zaïnal
Concept & original design : Baudouin d'Aumeries
Assistance for programming : Marc-Olivier Méhu
Technical & hardware support : Manuel Goepfert

Contact : metmap@orbifly.com




SOURCES & CREDITS :

   NOAA       Earth
Advisory